createdAt,value
2017-09-16T00:00:43.079Z,10.9
2017-09-16T00:01:44.446Z,10.9
2017-09-16T00:03:26.784Z,10.9
2017-09-16T00:04:28.153Z,10.9
2017-09-16T00:05:29.522Z,11.0
2017-09-16T00:06:30.889Z,10.9
2017-09-16T00:07:32.257Z,10.9
2017-09-16T00:08:33.627Z,10.9
2017-09-16T00:09:34.996Z,10.8
2017-09-16T00:10:36.363Z,11.0
2017-09-16T00:11:37.732Z,10.9
2017-09-16T00:12:39.097Z,11.0
2017-09-16T00:13:40.468Z,10.9
2017-09-16T00:14:41.836Z,10.8
2017-09-16T00:15:43.206Z,10.9
2017-09-16T00:16:44.573Z,11.0
2017-09-16T00:17:45.954Z,10.9
2017-09-16T00:18:47.326Z,11.0
2017-09-16T00:19:48.689Z,10.9
2017-09-16T00:20:50.060Z,10.9
2017-09-16T00:21:51.428Z,10.9
2017-09-16T00:22:52.797Z,10.9
2017-09-16T00:23:54.164Z,10.9
2017-09-16T00:24:55.561Z,10.9
2017-09-16T00:25:56.899Z,11.0
2017-09-16T00:26:58.267Z,10.8
2017-09-16T00:27:59.636Z,10.9
2017-09-16T00:29:01.005Z,10.8
2017-09-16T00:30:02.371Z,10.9
2017-09-16T00:31:03.750Z,10.9
2017-09-16T00:32:05.116Z,10.8
2017-09-16T00:33:06.482Z,10.8
2017-09-16T00:34:07.850Z,10.8
2017-09-16T00:35:50.210Z,10.9
2017-09-16T00:36:51.583Z,10.9
2017-09-16T00:37:52.950Z,10.9
2017-09-16T00:38:54.317Z,10.9
2017-09-16T00:39:55.684Z,10.9
2017-09-16T00:40:57.050Z,10.8
2017-09-16T00:41:58.432Z,10.8
2017-09-16T00:42:59.794Z,10.8
2017-09-16T00:44:01.162Z,10.8
2017-09-16T00:45:02.529Z,10.8
2017-09-16T00:46:03.896Z,10.9
2017-09-16T00:47:05.266Z,11.0
2017-09-16T00:48:06.634Z,10.9
2017-09-16T00:49:08.002Z,10.9
2017-09-16T00:50:09.373Z,10.8
2017-09-16T00:51:10.745Z,10.8
2017-09-16T00:52:12.105Z,10.8
2017-09-16T00:53:13.473Z,10.8
2017-09-16T00:54:14.839Z,10.7
2017-09-16T00:55:16.208Z,10.7
2017-09-16T00:56:17.579Z,10.7
2017-09-16T00:57:18.950Z,10.8
2017-09-16T00:58:20.316Z,10.7
2017-09-16T00:59:21.688Z,10.7
2017-09-16T01:00:23.057Z,10.8
2017-09-16T01:01:24.428Z,10.6
2017-09-16T01:02:25.792Z,10.8
2017-09-16T01:03:27.167Z,10.7
2017-09-16T01:04:28.536Z,10.7
2017-09-16T01:05:29.905Z,10.7
2017-09-16T01:06:31.301Z,10.5
2017-09-16T01:07:32.639Z,10.5
2017-09-16T01:08:34.006Z,10.6
2017-09-16T01:09:35.373Z,10.5
2017-09-16T01:10:36.743Z,10.4
2017-09-16T01:11:38.124Z,10.5
2017-09-16T01:12:39.486Z,10.5
2017-09-16T01:13:40.845Z,10.5
2017-09-16T01:14:42.223Z,10.6
2017-09-16T01:15:43.652Z,10.5
2017-09-16T01:16:45.017Z,10.6
2017-09-16T01:17:46.392Z,10.5
2017-09-16T01:18:47.761Z,10.6
2017-09-16T01:19:49.131Z,10.5
2017-09-16T01:20:50.496Z,10.5
2017-09-16T01:21:51.865Z,10.5
2017-09-16T01:22:53.232Z,10.5
2017-09-16T01:23:54.601Z,10.5
2017-09-16T01:24:55.971Z,10.5
2017-09-16T01:25:57.339Z,10.5
2017-09-16T01:26:58.708Z,10.5
2017-09-16T01:28:41.060Z,10.5
2017-09-16T01:29:42.431Z,10.5
2017-09-16T01:30:43.799Z,10.4
2017-09-16T01:31:45.164Z,10.4
2017-09-16T01:32:46.539Z,10.6
2017-09-16T01:33:47.917Z,10.5
2017-09-16T01:34:49.274Z,10.5
2017-09-16T01:35:50.645Z,10.5
2017-09-16T01:36:52.010Z,10.5
2017-09-16T01:37:53.375Z,10.4
2017-09-16T01:38:54.743Z,10.4
2017-09-16T01:39:56.113Z,10.4
2017-09-16T01:40:57.482Z,10.4
2017-09-16T01:41:58.849Z,10.4
2017-09-16T01:43:00.219Z,10.4
2017-09-16T01:44:01.588Z,10.4
2017-09-16T01:45:02.954Z,10.4
2017-09-16T01:46:04.321Z,10.4
2017-09-16T01:47:05.690Z,10.5
2017-09-16T01:48:07.058Z,10.4
2017-09-16T01:49:08.426Z,10.5
2017-09-16T01:50:09.795Z,10.5
2017-09-16T01:51:11.163Z,10.4
2017-09-16T01:52:12.531Z,10.3
2017-09-16T01:53:13.900Z,10.4
2017-09-16T01:54:15.273Z,10.4
2017-09-16T01:55:16.639Z,10.3
2017-09-16T01:56:18.008Z,10.4
2017-09-16T01:57:19.374Z,10.4
2017-09-16T01:58:20.741Z,10.4
2017-09-16T01:59:22.110Z,10.4
2017-09-16T02:00:23.479Z,10.5
2017-09-16T02:01:24.846Z,10.5
2017-09-16T02:02:26.213Z,10.5
2017-09-16T02:03:27.581Z,10.5
2017-09-16T02:04:28.951Z,10.5
2017-09-16T02:05:30.321Z,10.5
2017-09-16T02:06:31.687Z,10.4
2017-09-16T02:07:33.059Z,10.4
2017-09-16T02:08:34.426Z,10.5
2017-09-16T02:09:35.795Z,10.5
2017-09-16T02:10:37.168Z,10.4
2017-09-16T02:11:38.548Z,10.4
2017-09-16T02:12:39.917Z,10.5
2017-09-16T02:13:41.282Z,10.5
2017-09-16T02:14:42.650Z,10.5
2017-09-16T02:15:44.019Z,10.5
2017-09-16T02:16:45.386Z,10.6
2017-09-16T02:17:46.755Z,10.5
2017-09-16T02:18:48.124Z,10.5
2017-09-16T02:19:49.492Z,10.5
2017-09-16T02:20:50.858Z,10.5
2017-09-16T02:21:52.225Z,10.5
2017-09-16T02:22:53.593Z,10.6
2017-09-16T02:23:54.963Z,10.5
2017-09-16T02:24:56.330Z,10.5
2017-09-16T02:25:57.697Z,10.5
2017-09-16T02:26:59.066Z,10.5
2017-09-16T02:28:00.432Z,10.4
2017-09-16T02:29:01.812Z,10.5
2017-09-16T02:30:03.175Z,10.4
2017-09-16T02:31:04.543Z,10.5
2017-09-16T02:32:05.911Z,10.5
2017-09-16T02:33:07.277Z,10.5
2017-09-16T02:34:08.646Z,10.5
2017-09-16T02:35:10.018Z,10.6
2017-09-16T02:36:11.384Z,10.5
2017-09-16T02:37:12.752Z,10.5
2017-09-16T02:38:14.121Z,10.5
2017-09-16T02:39:15.492Z,10.4
2017-09-16T02:40:16.858Z,10.5
2017-09-16T02:41:18.255Z,10.4
2017-09-16T02:42:19.595Z,10.4
2017-09-16T02:43:20.961Z,10.4
2017-09-16T02:45:03.326Z,10.4
2017-09-16T02:46:04.695Z,10.4
2017-09-16T02:47:06.062Z,10.5
2017-09-16T02:48:07.430Z,10.3
2017-09-16T02:49:08.799Z,10.4
2017-09-16T02:50:10.164Z,10.4
2017-09-16T02:51:11.535Z,10.4
2017-09-16T02:52:12.906Z,10.3
2017-09-16T02:53:14.270Z,10.3
2017-09-16T02:54:15.637Z,10.2
2017-09-16T02:55:17.003Z,10.3
2017-09-16T02:56:18.397Z,10.3
2017-09-16T02:57:19.740Z,10.3
2017-09-16T02:58:21.109Z,10.4
2017-09-16T02:59:22.480Z,10.4
2017-09-16T03:00:23.849Z,10.3
2017-09-16T03:02:06.191Z,10.3
2017-09-16T03:03:07.557Z,10.4
2017-09-16T03:04:08.925Z,10.3
2017-09-16T03:05:10.290Z,10.4
2017-09-16T03:06:11.656Z,10.3
2017-09-16T03:07:13.044Z,10.3
2017-09-16T03:08:14.394Z,10.3
2017-09-16T03:09:15.768Z,10.3
2017-09-16T03:10:17.131Z,10.4
2017-09-16T03:11:18.500Z,10.3
2017-09-16T03:12:19.867Z,10.4
2017-09-16T03:13:21.233Z,10.3
2017-09-16T03:14:22.606Z,10.3
2017-09-16T03:15:23.971Z,10.4
2017-09-16T03:16:25.337Z,10.4
2017-09-16T03:18:07.685Z,10.4
2017-09-16T03:19:09.060Z,10.4
2017-09-16T03:20:10.428Z,10.4
2017-09-16T03:21:11.796Z,10.3
2017-09-16T03:22:13.182Z,10.3
2017-09-16T03:23:14.532Z,10.4
2017-09-16T03:24:15.898Z,10.3
2017-09-16T03:25:17.272Z,10.3
2017-09-16T03:26:18.632Z,10.3
2017-09-16T03:27:19.998Z,10.4
2017-09-16T03:28:21.368Z,10.3
2017-09-16T03:29:22.729Z,10.4
2017-09-16T03:30:24.106Z,10.4
2017-09-16T03:31:25.475Z,10.3
2017-09-16T03:32:26.845Z,10.3
2017-09-16T03:33:28.210Z,10.3
2017-09-16T03:34:29.581Z,10.3
2017-09-16T03:35:30.941Z,10.3
2017-09-16T03:36:32.309Z,10.3
2017-09-16T03:37:33.672Z,10.3
2017-09-16T03:38:35.050Z,10.3
2017-09-16T03:39:36.416Z,10.3
2017-09-16T03:40:37.782Z,10.3
2017-09-16T03:41:39.197Z,10.3
2017-09-16T03:42:40.525Z,10.3
2017-09-16T03:43:41.895Z,10.3
2017-09-16T03:44:43.263Z,10.3
2017-09-16T03:45:44.632Z,10.2
2017-09-16T03:46:45.998Z,10.2
2017-09-16T03:47:47.363Z,10.2
2017-09-16T03:48:48.742Z,10.1
2017-09-16T03:50:31.101Z,10.2
2017-09-16T03:51:32.466Z,10.0
2017-09-16T03:52:33.830Z,10.0
2017-09-16T03:53:35.199Z,10.0
2017-09-16T03:54:36.564Z,9.9
2017-09-16T03:55:37.931Z,9.9
2017-09-16T03:56:39.298Z,9.8
2017-09-16T03:57:40.668Z,9.9
2017-09-16T03:58:42.035Z,9.9
2017-09-16T03:59:43.423Z,9.9
2017-09-16T04:00:44.796Z,9.9
2017-09-16T04:01:46.161Z,9.9
2017-09-16T04:02:47.527Z,9.9
2017-09-16T04:03:48.893Z,9.9
2017-09-16T04:04:50.259Z,10.0
2017-09-16T04:05:51.631Z,9.9
2017-09-16T04:06:52.999Z,10.0
2017-09-16T04:07:54.365Z,10.0
2017-09-16T04:08:55.740Z,10.0
2017-09-16T04:09:57.105Z,10.0
2017-09-16T04:10:58.473Z,10.0
2017-09-16T04:11:59.849Z,10.0
2017-09-16T04:13:01.214Z,10.0
2017-09-16T04:14:02.581Z,10.0
2017-09-16T04:15:03.952Z,10.0
2017-09-16T04:16:05.315Z,10.1
2017-09-16T04:17:06.687Z,10.1
2017-09-16T04:18:08.055Z,10.1
2017-09-16T04:19:09.427Z,10.0
2017-09-16T04:20:10.795Z,10.0
2017-09-16T04:21:12.160Z,10.0
2017-09-16T04:22:13.517Z,9.9
2017-09-16T04:23:14.897Z,10.0
2017-09-16T04:24:16.268Z,10.0
2017-09-16T04:25:17.634Z,9.9
2017-09-16T04:26:19.004Z,9.9
2017-09-16T04:27:20.377Z,9.8
2017-09-16T04:28:21.735Z,9.9
2017-09-16T04:30:04.082Z,9.9
2017-09-16T04:31:05.445Z,9.9
2017-09-16T04:32:06.808Z,10.0
2017-09-16T04:33:08.175Z,10.0
2017-09-16T04:34:09.543Z,9.9
2017-09-16T04:35:10.911Z,10.0
2017-09-16T04:36:12.278Z,10.0
2017-09-16T04:37:13.646Z,10.0
2017-09-16T04:38:15.014Z,10.0
2017-09-16T04:39:16.380Z,10.1
2017-09-16T04:40:17.748Z,10.0
2017-09-16T04:41:19.115Z,10.0
2017-09-16T04:42:20.483Z,10.1
2017-09-16T04:43:21.855Z,10.0
2017-09-16T04:44:23.246Z,10.0
2017-09-16T04:46:05.588Z,10.0
2017-09-16T04:47:06.949Z,10.1
2017-09-16T04:48:08.319Z,10.1
2017-09-16T04:49:09.688Z,10.0
2017-09-16T04:50:11.052Z,9.9
2017-09-16T04:51:12.422Z,10.0
2017-09-16T04:52:13.801Z,10.1
2017-09-16T04:53:15.170Z,10.1
2017-09-16T04:54:16.537Z,10.0
2017-09-16T04:55:17.904Z,10.1
2017-09-16T04:56:19.271Z,10.0
2017-09-16T04:57:20.640Z,10.1
2017-09-16T04:58:22.009Z,10.0
2017-09-16T04:59:23.384Z,9.9
2017-09-16T05:00:24.760Z,9.9
2017-09-16T05:01:26.124Z,9.9
2017-09-16T05:02:27.493Z,9.9
2017-09-16T05:03:28.861Z,9.9
2017-09-16T05:04:30.228Z,9.9
2017-09-16T05:05:31.596Z,9.8
2017-09-16T05:06:32.971Z,9.7
2017-09-16T05:07:34.342Z,9.8
2017-09-16T05:08:35.711Z,9.8
2017-09-16T05:09:37.082Z,9.8
2017-09-16T05:10:38.448Z,9.9
2017-09-16T05:11:39.817Z,9.9
2017-09-16T05:12:41.189Z,9.9
2017-09-16T05:13:42.557Z,9.9
2017-09-16T05:14:43.932Z,9.8
2017-09-16T05:15:45.298Z,9.9
2017-09-16T05:16:46.674Z,9.9
2017-09-16T05:17:48.039Z,10.0
2017-09-16T05:18:49.407Z,10.0
2017-09-16T05:19:50.786Z,10.0
2017-09-16T05:20:52.151Z,10.0
2017-09-16T05:21:53.523Z,10.0
2017-09-16T05:22:54.895Z,10.0
2017-09-16T05:23:56.262Z,10.1
2017-09-16T05:24:57.637Z,10.2
2017-09-16T05:25:59.024Z,10.2
2017-09-16T05:27:00.392Z,10.2
2017-09-16T05:28:01.767Z,10.3
2017-09-16T05:29:03.137Z,10.2
2017-09-16T05:30:04.514Z,10.2
2017-09-16T05:31:05.886Z,10.3
2017-09-16T05:32:07.259Z,10.3
2017-09-16T05:33:49.601Z,10.4
2017-09-16T05:34:50.970Z,10.4
2017-09-16T05:35:52.334Z,10.6
2017-09-16T05:36:53.720Z,10.7
2017-09-16T05:37:55.096Z,10.9
2017-09-16T05:38:56.468Z,11.0
2017-09-16T05:39:57.843Z,11.2
2017-09-16T05:40:59.214Z,11.2
2017-09-16T05:42:00.584Z,11.4
2017-09-16T05:43:01.957Z,11.4
2017-09-16T05:44:03.328Z,11.5
2017-09-16T05:45:04.703Z,11.6
2017-09-16T05:46:06.073Z,11.7
2017-09-16T05:47:07.447Z,11.6
2017-09-16T05:48:08.822Z,11.8
2017-09-16T05:49:10.197Z,11.8
2017-09-16T05:50:11.573Z,11.8
2017-09-16T05:51:12.946Z,11.9
2017-09-16T05:52:14.318Z,11.9
2017-09-16T05:53:15.694Z,11.9
2017-09-16T05:54:17.068Z,12.0
2017-09-16T05:55:18.445Z,12.1
2017-09-16T05:56:19.816Z,12.2
2017-09-16T05:57:21.199Z,12.1
2017-09-16T05:58:22.561Z,12.3
2017-09-16T05:59:23.947Z,12.4
2017-09-16T06:00:25.319Z,12.6
2017-09-16T06:01:26.697Z,12.6
2017-09-16T06:02:28.072Z,12.5
2017-09-16T06:03:29.455Z,12.5
2017-09-16T06:04:30.830Z,12.6
2017-09-16T06:05:32.202Z,12.6
2017-09-16T06:06:33.581Z,12.7
2017-09-16T06:07:34.952Z,12.8
2017-09-16T06:08:36.329Z,12.9
2017-09-16T06:09:37.706Z,12.9
2017-09-16T06:10:39.082Z,13.0
2017-09-16T06:11:40.453Z,13.0
2017-09-16T06:12:41.828Z,13.2
2017-09-16T06:13:43.206Z,13.2
2017-09-16T06:14:44.581Z,13.2
2017-09-16T06:15:45.954Z,13.2
2017-09-16T06:16:47.333Z,13.4
2017-09-16T06:17:48.704Z,13.4
2017-09-16T06:18:50.075Z,13.6
2017-09-16T06:19:51.452Z,13.7
2017-09-16T06:20:52.830Z,13.8
2017-09-16T06:22:35.183Z,13.8
2017-09-16T06:23:36.558Z,13.9
2017-09-16T06:24:37.928Z,13.8
2017-09-16T06:25:39.304Z,13.9
2017-09-16T06:26:40.684Z,14.0
2017-09-16T06:27:42.059Z,14.2
2017-09-16T06:28:43.445Z,14.2
2017-09-16T06:29:44.821Z,14.4
2017-09-16T06:30:46.198Z,14.5
2017-09-16T06:31:47.575Z,14.5
2017-09-16T06:32:48.951Z,14.7
2017-09-16T06:33:50.323Z,14.6
2017-09-16T06:34:51.704Z,14.8
2017-09-16T06:35:53.078Z,14.8
2017-09-16T06:36:54.455Z,14.8
2017-09-16T06:37:55.831Z,14.9
2017-09-16T06:38:57.204Z,14.9
2017-09-16T06:39:58.579Z,15.1
2017-09-16T06:40:59.958Z,15.2
2017-09-16T06:42:01.336Z,15.2
2017-09-16T06:43:02.717Z,15.2
2017-09-16T06:44:04.090Z,15.2
2017-09-16T06:45:05.465Z,15.1
2017-09-16T06:46:06.842Z,15.1
2017-09-16T06:47:08.219Z,15.1
2017-09-16T06:48:09.612Z,15.0
2017-09-16T06:49:10.985Z,15.1
2017-09-16T06:50:12.364Z,15.0
2017-09-16T06:51:13.758Z,15.2
2017-09-16T06:52:15.121Z,15.2
2017-09-16T06:53:16.497Z,15.3
2017-09-16T06:54:17.881Z,15.5
2017-09-16T06:55:19.284Z,15.7
2017-09-16T06:56:20.661Z,15.7
2017-09-16T06:57:22.048Z,15.8
2017-09-16T06:58:23.423Z,15.9
2017-09-16T06:59:24.801Z,16.0
2017-09-16T07:00:26.197Z,16.0
2017-09-16T07:01:27.571Z,16.2
2017-09-16T07:02:28.954Z,16.2
2017-09-16T07:03:30.330Z,16.3
2017-09-16T07:04:31.713Z,16.3
2017-09-16T07:05:33.087Z,16.4
2017-09-16T07:06:34.573Z,16.5
2017-09-16T07:07:35.952Z,16.6
2017-09-16T07:08:37.349Z,16.6
2017-09-16T07:09:38.745Z,16.7
2017-09-16T07:10:40.123Z,16.8
2017-09-16T07:11:41.503Z,16.8
2017-09-16T07:12:42.887Z,17.0
2017-09-16T07:13:44.272Z,17.0
2017-09-16T07:14:45.651Z,16.9
2017-09-16T07:15:47.037Z,17.1
2017-09-16T07:16:48.557Z,17.0
2017-09-16T07:17:49.897Z,16.9
2017-09-16T07:18:51.277Z,16.9
2017-09-16T07:19:52.659Z,16.9
2017-09-16T07:20:54.043Z,17.0
2017-09-16T07:21:55.420Z,17.3
2017-09-16T07:22:56.808Z,17.3
2017-09-16T07:23:58.178Z,17.3
2017-09-16T07:24:59.573Z,17.4
2017-09-16T07:26:00.977Z,17.4
2017-09-16T07:27:02.370Z,17.4
2017-09-16T07:28:03.788Z,17.4
2017-09-16T07:29:05.174Z,17.3
2017-09-16T07:30:06.559Z,17.1
2017-09-16T07:31:07.937Z,17.0
2017-09-16T07:32:09.326Z,17.1
2017-09-16T07:33:10.714Z,17.3
2017-09-16T07:34:12.106Z,17.3
2017-09-16T07:35:13.532Z,17.3
2017-09-16T07:36:14.906Z,17.4
2017-09-16T07:37:16.284Z,17.3
2017-09-16T07:38:17.668Z,17.2
2017-09-16T07:39:19.050Z,17.3
2017-09-16T07:40:20.437Z,17.4
2017-09-16T07:41:21.820Z,17.6
2017-09-16T07:42:23.326Z,17.7
2017-09-16T07:43:24.705Z,17.8
2017-09-16T07:44:26.090Z,17.9
2017-09-16T07:45:27.472Z,17.9
2017-09-16T07:46:28.861Z,17.8
2017-09-16T07:47:30.246Z,17.9
2017-09-16T07:48:31.630Z,17.7
2017-09-16T07:49:33.013Z,17.6
2017-09-16T07:50:34.401Z,17.9
2017-09-16T07:51:35.791Z,18.1
2017-09-16T07:52:37.196Z,18.2
2017-09-16T07:53:38.588Z,18.4
2017-09-16T07:54:39.980Z,18.5
2017-09-16T07:55:41.364Z,18.4
2017-09-16T07:56:42.748Z,18.5
2017-09-16T07:57:44.155Z,18.5
2017-09-16T07:58:45.531Z,18.8
2017-09-16T07:59:46.925Z,18.9
2017-09-16T08:00:48.319Z,19.1
2017-09-16T08:01:49.703Z,19.2
2017-09-16T08:02:51.089Z,19.4
2017-09-16T08:03:52.473Z,19.6
2017-09-16T08:04:53.865Z,19.7
2017-09-16T08:05:55.258Z,19.7
2017-09-16T08:06:56.645Z,19.5
2017-09-16T08:07:58.027Z,19.5
2017-09-16T08:08:59.412Z,19.6
2017-09-16T08:10:00.804Z,19.8
2017-09-16T08:11:02.184Z,20.1
2017-09-16T08:12:03.589Z,20.5
2017-09-16T08:13:04.966Z,20.7
2017-09-16T08:14:06.360Z,20.7
2017-09-16T08:15:07.774Z,20.8
2017-09-16T08:16:09.130Z,20.8
2017-09-16T08:17:10.523Z,20.6
2017-09-16T08:18:11.905Z,20.8
2017-09-16T08:19:13.287Z,20.5
2017-09-16T08:20:14.689Z,20.5
2017-09-16T08:21:16.073Z,20.9
2017-09-16T08:22:17.458Z,20.8
2017-09-16T08:23:18.843Z,20.7
2017-09-16T08:24:20.229Z,20.6
2017-09-16T08:25:21.612Z,20.5
2017-09-16T08:26:22.995Z,20.6
2017-09-16T08:27:24.380Z,20.6
2017-09-16T08:28:25.762Z,20.6
2017-09-16T08:30:08.150Z,20.9
2017-09-16T08:31:09.532Z,21.0
2017-09-16T08:32:10.915Z,20.7
2017-09-16T08:33:12.298Z,20.4
2017-09-16T08:34:13.708Z,20.4
2017-09-16T08:35:15.095Z,20.3
2017-09-16T08:36:16.483Z,20.2
2017-09-16T08:37:17.869Z,20.5
2017-09-16T08:38:19.263Z,20.8
2017-09-16T08:39:20.649Z,20.9
2017-09-16T08:40:22.032Z,20.9
2017-09-16T08:41:23.417Z,21.0
2017-09-16T08:42:24.802Z,21.1
2017-09-16T08:43:26.185Z,21.1
2017-09-16T08:44:27.575Z,21.1
2017-09-16T08:45:28.961Z,21.5
2017-09-16T08:46:30.349Z,21.5
2017-09-16T08:47:31.731Z,21.6
2017-09-16T08:48:33.114Z,21.7
2017-09-16T08:49:34.499Z,21.2
2017-09-16T08:50:35.890Z,21.0
2017-09-16T08:51:37.269Z,20.9
2017-09-16T08:52:38.649Z,20.8
2017-09-16T08:53:40.051Z,21.0
2017-09-16T08:54:41.417Z,21.0
2017-09-16T08:55:42.808Z,21.0
2017-09-16T08:56:44.190Z,20.9
2017-09-16T08:57:45.575Z,20.9
2017-09-16T08:58:46.962Z,21.1
2017-09-16T08:59:48.344Z,21.2
2017-09-16T09:01:30.726Z,21.5
2017-09-16T09:02:32.107Z,21.3
2017-09-16T09:03:33.489Z,21.2
2017-09-16T09:04:34.872Z,21.5
2017-09-16T09:05:36.254Z,21.7
2017-09-16T09:06:37.633Z,21.5
2017-09-16T09:07:39.027Z,21.9
2017-09-16T09:08:40.411Z,22.0
2017-09-16T09:09:41.793Z,22.3
2017-09-16T09:10:43.178Z,22.5
2017-09-16T09:11:44.560Z,22.5
2017-09-16T09:12:45.944Z,22.1
2017-09-16T09:13:47.329Z,21.9
2017-09-16T09:14:48.713Z,21.7
2017-09-16T09:15:50.096Z,21.8
2017-09-16T09:16:51.479Z,21.8
2017-09-16T09:17:52.861Z,21.8
2017-09-16T09:18:54.252Z,21.7
2017-09-16T09:19:55.637Z,21.7
2017-09-16T09:20:57.023Z,21.8
2017-09-16T09:21:58.409Z,22.0
2017-09-16T09:22:59.797Z,22.3
2017-09-16T09:24:01.179Z,22.3
2017-09-16T09:25:02.563Z,22.1
2017-09-16T09:26:03.944Z,21.7
2017-09-16T09:27:05.339Z,21.6
2017-09-16T09:28:06.725Z,21.7
2017-09-16T09:29:08.109Z,21.7
2017-09-16T09:30:09.495Z,21.8
2017-09-16T09:31:10.880Z,22.0
2017-09-16T09:32:12.264Z,22.1
2017-09-16T09:33:13.650Z,22.1
2017-09-16T09:34:15.043Z,22.5
2017-09-16T09:35:16.432Z,22.8
2017-09-16T09:36:17.820Z,22.9
2017-09-16T09:37:19.212Z,23.1
2017-09-16T09:38:20.596Z,23.3
2017-09-16T09:39:22.002Z,23.2
2017-09-16T09:40:23.388Z,23.0
2017-09-16T09:41:24.777Z,23.1
2017-09-16T09:42:26.162Z,22.9
2017-09-16T09:43:27.553Z,23.0
2017-09-16T09:44:28.942Z,23.0
2017-09-16T09:45:30.327Z,23.0
2017-09-16T09:46:31.716Z,22.9
2017-09-16T09:47:33.102Z,22.9
2017-09-16T09:48:34.512Z,23.0
2017-09-16T09:50:16.894Z,22.8
2017-09-16T09:51:18.280Z,23.2
2017-09-16T09:52:19.675Z,23.2
2017-09-16T09:53:21.062Z,23.6
2017-09-16T09:54:22.452Z,23.7
2017-09-16T09:55:23.838Z,24.1
2017-09-16T09:56:25.238Z,23.9
2017-09-16T09:57:26.617Z,24.0
2017-09-16T09:58:28.015Z,24.3
2017-09-16T09:59:29.404Z,24.0
2017-09-16T10:00:30.791Z,24.0
2017-09-16T10:01:32.182Z,23.7
2017-09-16T10:02:33.571Z,23.5
2017-09-16T10:03:34.964Z,23.6
2017-09-16T10:04:36.353Z,23.7
2017-09-16T10:06:17.736Z,24.3
2017-09-16T10:07:19.124Z,24.3
2017-09-16T10:08:41.134Z,24.5
2017-09-16T10:09:42.523Z,24.7
2017-09-16T10:11:04.531Z,24.2
2017-09-16T10:12:05.922Z,24.0
2017-09-16T10:13:07.308Z,23.9
2017-09-16T10:14:08.701Z,23.9
2017-09-16T10:15:10.096Z,24.0
2017-09-16T10:16:11.486Z,24.2
2017-09-16T10:17:12.879Z,24.3
2017-09-16T10:18:14.294Z,24.2
2017-09-16T10:19:15.682Z,24.4
2017-09-16T10:20:17.066Z,24.7
2017-09-16T10:21:59.448Z,24.8
2017-09-16T10:23:00.838Z,25.1
2017-09-16T10:24:02.226Z,24.6
2017-09-16T10:25:03.615Z,24.9
2017-09-16T10:26:05.017Z,25.1
2017-09-16T10:27:06.412Z,25.3
2017-09-16T10:28:07.804Z,24.7
2017-09-16T10:29:09.196Z,25.0
2017-09-16T10:30:10.585Z,24.4
2017-09-16T10:31:11.972Z,23.9
2017-09-16T10:32:13.364Z,23.8
2017-09-16T10:33:14.756Z,24.1
2017-09-16T10:34:16.142Z,24.1
2017-09-16T10:35:17.534Z,24.1
2017-09-16T10:36:18.922Z,24.0
2017-09-16T10:37:20.314Z,23.7
2017-09-16T10:38:21.694Z,23.3
2017-09-16T10:39:23.083Z,23.3
2017-09-16T10:40:24.485Z,23.7
2017-09-16T10:41:25.859Z,23.9
2017-09-16T10:42:27.248Z,24.2
2017-09-16T10:43:28.659Z,24.6
2017-09-16T10:44:30.051Z,24.6
2017-09-16T10:45:31.435Z,24.5
2017-09-16T10:46:32.829Z,24.2
2017-09-16T10:47:34.266Z,23.8
2017-09-16T10:48:35.656Z,23.0
2017-09-16T10:49:37.068Z,23.2
2017-09-16T10:50:38.458Z,23.0
2017-09-16T10:51:39.851Z,22.7
2017-09-16T10:52:41.233Z,22.5
2017-09-16T10:54:22.617Z,22.3
2017-09-16T10:55:24.002Z,22.8
2017-09-16T10:56:46.998Z,23.0
2017-09-16T10:57:48.387Z,23.1
2017-09-16T10:58:49.773Z,23.0
2017-09-16T10:59:51.160Z,23.2
2017-09-16T11:00:52.546Z,23.4
2017-09-16T11:01:53.934Z,23.8
2017-09-16T11:02:55.327Z,23.9
2017-09-16T11:03:56.715Z,24.1
2017-09-16T11:04:58.099Z,24.0
2017-09-16T11:05:59.483Z,23.2
2017-09-16T11:07:00.874Z,23.0
2017-09-16T11:08:02.257Z,23.0
2017-09-16T11:09:03.646Z,22.8
2017-09-16T11:10:45.023Z,22.6
2017-09-16T11:11:46.408Z,22.7
2017-09-16T11:13:08.412Z,22.7
2017-09-16T11:14:09.800Z,22.7
2017-09-16T11:15:32.810Z,22.6
2017-09-16T11:16:34.184Z,22.6
2017-09-16T11:17:35.573Z,23.2
2017-09-16T11:18:36.959Z,23.6
2017-09-16T11:19:38.344Z,24.0
2017-09-16T11:20:39.733Z,24.5
2017-09-16T11:21:41.119Z,24.5
2017-09-16T11:22:42.507Z,24.3
2017-09-16T11:23:43.897Z,24.3
2017-09-16T11:24:45.336Z,24.2
2017-09-16T11:25:46.699Z,24.5
2017-09-16T11:26:48.113Z,24.7
2017-09-16T11:27:49.504Z,25.0
2017-09-16T11:28:50.900Z,25.4
2017-09-16T11:29:52.303Z,25.4
2017-09-16T11:30:53.683Z,25.5
2017-09-16T11:31:55.118Z,25.6
2017-09-16T11:32:56.511Z,26.0
2017-09-16T11:33:57.897Z,26.0
2017-09-16T11:34:59.294Z,26.0
2017-09-16T11:36:00.687Z,26.2
2017-09-16T11:37:02.079Z,26.5
2017-09-16T11:38:03.478Z,26.6
2017-09-16T11:39:04.876Z,26.4
2017-09-16T11:40:06.268Z,26.8
2017-09-16T11:41:07.667Z,27.0
2017-09-16T11:42:09.072Z,27.2
2017-09-16T11:43:10.479Z,27.5
2017-09-16T11:44:11.879Z,28.1
2017-09-16T11:45:13.270Z,27.9
2017-09-16T11:46:14.736Z,27.6
2017-09-16T11:47:16.270Z,27.1
2017-09-16T11:48:17.918Z,27.1
2017-09-16T11:49:19.698Z,26.8
2017-09-16T11:50:21.176Z,27.0
2017-09-16T11:51:22.592Z,26.5
2017-09-16T11:52:23.998Z,26.4
2017-09-16T11:53:25.391Z,26.4
2017-09-16T11:54:26.796Z,26.7
2017-09-16T11:55:28.212Z,26.3
2017-09-16T11:56:29.610Z,26.5
2017-09-16T11:57:31.006Z,26.1
2017-09-16T11:58:32.402Z,26.0
2017-09-16T11:59:33.802Z,25.8
2017-09-16T12:00:35.200Z,26.0
2017-09-16T12:01:36.596Z,25.8
2017-09-16T12:02:37.989Z,25.8
2017-09-16T12:03:39.383Z,25.7
2017-09-16T12:04:40.856Z,25.3
2017-09-16T12:05:42.248Z,25.8
2017-09-16T12:06:43.644Z,26.0
2017-09-16T12:07:45.041Z,26.5
2017-09-16T12:08:46.443Z,26.6
2017-09-16T12:09:47.841Z,25.9
2017-09-16T12:10:49.236Z,26.3
2017-09-16T12:11:50.635Z,26.4
2017-09-16T12:12:52.033Z,26.4
2017-09-16T12:13:53.426Z,26.6
2017-09-16T12:15:34.832Z,27.1
2017-09-16T12:16:36.224Z,27.2
2017-09-16T12:17:37.619Z,27.1
2017-09-16T12:18:39.008Z,26.8
2017-09-16T12:19:40.401Z,26.8
2017-09-16T12:20:41.882Z,27.1
2017-09-16T12:21:43.276Z,27.0
2017-09-16T12:22:44.666Z,27.2
2017-09-16T12:23:46.060Z,27.2
2017-09-16T12:24:47.473Z,27.1
2017-09-16T12:25:48.995Z,27.3
2017-09-16T12:26:50.370Z,27.6
2017-09-16T12:27:52.537Z,27.5
2017-09-16T12:28:53.943Z,27.2
2017-09-16T12:29:55.406Z,27.1
2017-09-16T12:31:36.803Z,27.1
2017-09-16T12:32:38.217Z,26.6
2017-09-16T12:33:39.616Z,26.3
2017-09-16T12:34:41.406Z,26.4
2017-09-16T12:35:42.763Z,26.2
2017-09-16T12:36:44.152Z,26.3
2017-09-16T12:37:45.565Z,26.7
2017-09-16T12:38:46.966Z,26.4
2017-09-16T12:39:48.355Z,26.7
2017-09-16T12:40:49.749Z,26.8
2017-09-16T12:41:51.142Z,27.1
2017-09-16T12:42:52.533Z,27.3
2017-09-16T12:43:53.923Z,27.3
2017-09-16T12:44:55.318Z,27.0
2017-09-16T12:45:56.714Z,26.7
2017-09-16T12:46:58.112Z,26.8
2017-09-16T12:47:59.498Z,26.7
2017-09-16T12:49:00.890Z,26.2
2017-09-16T12:50:02.285Z,26.3
2017-09-16T12:51:03.680Z,26.7
2017-09-16T12:52:05.129Z,27.1
2017-09-16T12:53:06.540Z,27.2
2017-09-16T12:54:07.929Z,27.0
2017-09-16T12:55:09.340Z,26.6
2017-09-16T12:56:10.876Z,26.7
2017-09-16T12:57:12.279Z,27.0
2017-09-16T12:58:13.668Z,27.3
2017-09-16T12:59:15.076Z,27.4
2017-09-16T13:00:16.699Z,27.6
2017-09-16T13:01:18.101Z,27.7
2017-09-16T13:02:19.508Z,27.4
2017-09-16T13:03:20.909Z,27.0
2017-09-16T13:04:22.310Z,26.8
2017-09-16T13:05:23.711Z,26.4
2017-09-16T13:06:25.118Z,25.8
2017-09-16T13:07:26.513Z,25.1
2017-09-16T13:08:27.925Z,24.8
2017-09-16T13:09:29.320Z,24.0
2017-09-16T13:10:30.812Z,23.9
2017-09-16T13:11:32.453Z,24.5
2017-09-16T13:12:33.851Z,24.9
2017-09-16T13:13:35.279Z,25.2
2017-09-16T13:14:36.673Z,25.1
2017-09-16T13:15:38.067Z,25.1
2017-09-16T13:16:39.462Z,25.3
2017-09-16T13:17:40.854Z,25.2
2017-09-16T13:18:42.262Z,25.2
2017-09-16T13:20:23.672Z,25.9
2017-09-16T13:21:25.105Z,25.9
2017-09-16T13:22:47.114Z,25.7
2017-09-16T13:23:48.531Z,24.9
2017-09-16T13:24:49.917Z,24.4
2017-09-16T13:25:51.345Z,24.2
2017-09-16T13:26:52.732Z,23.9
2017-09-16T13:27:54.135Z,23.5
2017-09-16T13:28:55.529Z,23.2
2017-09-16T13:29:56.953Z,23.1
2017-09-16T13:30:58.335Z,23.1
2017-09-16T13:31:59.766Z,23.1
2017-09-16T13:33:01.158Z,22.8
2017-09-16T13:34:02.544Z,23.0
2017-09-16T13:35:03.934Z,23.1
2017-09-16T13:36:05.347Z,23.1
2017-09-16T13:37:06.744Z,23.2
2017-09-16T13:38:08.145Z,23.4
2017-09-16T13:39:09.603Z,23.7
2017-09-16T13:40:10.989Z,24.1
2017-09-16T13:41:12.373Z,24.2
2017-09-16T13:42:13.772Z,23.9
2017-09-16T13:43:15.184Z,24.1
2017-09-16T13:44:16.573Z,24.4
2017-09-16T13:45:17.956Z,24.7
2017-09-16T13:46:19.345Z,25.1
2017-09-16T13:47:20.739Z,25.4
2017-09-16T13:48:22.133Z,25.6
2017-09-16T13:49:23.535Z,25.3
2017-09-16T13:50:24.955Z,25.3
2017-09-16T13:51:26.348Z,25.7
2017-09-16T13:52:27.750Z,26.0
2017-09-16T13:53:29.138Z,26.3
2017-09-16T13:54:30.529Z,26.6